Date,TemperatureHighF,TemperatureAvgF,TemperatureLowF,DewpointHighF,DewpointAvgF,DewpointLowF,HumidityHigh,HumidityAvg,HumidityLow,PressureMaxIn,PressureMinIn,WindSpeedMaxMPH,WindSpeedAvgMPH,GustSpeedMaxMPH,PrecipitationSumIn
2013-1-1,24,22,18,18,14,11,77,70,61,30.23,30.11,8,4,15,0.00
2013-1-2,25,22,17,23,16,11,92,78,73,30.23,30.14,6,4,13,0.00
2013-1-3,28,25,20,23,20,15,87,81,77,30.19,30.08,9,6,18,0.00
2013-1-4,33,30,26,26,24,21,85,78,72,30.21,30.00,23,10,33,0.00
2013-1-5,34,28,19,31,24,17,94,86,76,30.32,30.01,11,3,15,0.03
2013-1-6,35,33,30,33,30,24,94,87,75,30.32,29.92,18,5,20,0.05
2013-1-7,37,32,29,26,25,23,85,75,61,30.37,30.12,21,7,24,0.00
2013-1-8,39,32,28,31,26,23,83,79,71,30.26,30.14,14,5,15,0.00
2013-1-9,45,38,30,34,30,26,86,73,56,30.47,29.99,26,9,32,0.02
2013-1-10,44,34,26,32,28,23,90,78,58,30.62,30.23,11,3,14,0.07
2013-1-11,51,43,34,50,42,32,100,93,89,30.23,29.76,14,5,17,0.73
2013-1-12,56,49,42,49,43,34,93,79,61,29.97,29.80,18,5,29,0.00
2013-1-13,42,35,26,35,33,23,95,93,78,30.08,29.84,13,3,21,0.48
2013-1-14,26,22,16,23,16,13,92,79,66,30.48,30.08,15,5,21,0.00
2013-1-15,28,20,14,20,16,12,90,82,69,30.50,30.22,7,2,9,0.00
2013-1-16,34,26,17,29,21,14,89,81,65,30.22,29.79,21,6,24,0.00
2013-1-17,32,23,14,28,17,7,87,75,64,30.39,29.99,11,3,16,0.00
2013-1-18,36,23,10,27,16,6,89,75,64,30.50,29.92,19,6,25,0.00
2013-1-19,42,38,33,36,31,25,92,76,70,29.93,29.52,19,8,26,0.06
2013-1-20,35,20,13,32,11,4,91,69,61,30.25,29.54,27,9,33,0.01
2013-1-21,15,11,3,10,2,-5,86,69,52,30.22,30.03,16,6,22,0.00
2013-1-22,8,4,0,-2,-5,-9,73,66,55,30.37,30.18,15,6,19,0.00
2013-1-23,16,10,3,13,5,-3,95,80,68,30.37,30.16,12,4,17,0.00
2013-1-24,16,10,3,9,3,-1,92,75,61,30.70,30.24,8,2,10,0.00
2013-1-25,21,16,11,17,12,4,90,81,69,30.59,30.08,12,4,14,0.04
2013-1-26,30,22,15,19,16,11,90,78,56,30.51,30.12,7,1,11,0.00
2013-1-27,29,23,14,25,17,10,93,79,64,30.54,30.19,13,4,18,0.15
2013-1-28,40,35,27,39,33,25,96,93,88,30.20,29.88,15,4,17,0.10
2013-1-29,55,44,34,53,43,32,100,94,87,30.07,29.42,13,5,19,0.87
2013-1-30,55,42,30,54,40,26,97,94,83,29.43,29.09,23,5,26,0.49
2013-1-31,30,22,18,26,14,7,83,71,52,29.92,29.25,28,9,30,0.00
2013-2-1,18,16,12,13,9,6,81,73,61,30.27,29.92,17,8,21,0.00
2013-2-2,17,14,8,13,8,3,95,78,64,30.23,30.08,16,4,18,0.00
2013-2-3,19,13,6,15,8,2,85,79,69,30.12,29.93,13,4,18,0.00
2013-2-4,22,15,9,14,11,6,89,83,67,30.10,29.97,6,1,10,0.01
2013-2-5,27,16,5,24,12,2,88,83,73,30.05,29.83,14,3,16,0.02
2013-2-6,28,22,12,20,15,8,86,75,64,30.35,30.05,9,2,12,0.00
2013-2-7,32,28,24,27,24,19,94,85,73,30.33,30.00,13,5,15,0.16
2013-2-8,29,24,10,28,21,7,95,88,77,30.45,29.96,16,5,20,0.39
2013-2-9,28,15,0,20,11,-4,90,83,67,30.55,30.36,6,1,7,0.00
2013-2-10,39,24,4,36,19,0,93,82,66,30.36,29.70,16,5,23,0.23
2013-2-11,42,37,32,40,32,27,94,84,72,29.85,29.54,22,11,31,0.00
2013-2-12,32,29,26,27,24,20,83,78,72,30.06,29.85,18,7,24,0.00
2013-2-13,33,30,26,28,25,20,89,82,78,29.98,29.79,13,4,14,0.00
2013-2-14,40,34,29,35,31,25,94,87,79,29.87,29.66,20,6,25,0.05
2013-2-15,29,25,20,25,17,14,86,74,61,30.19,29.87,13,4,21,0.00
2013-2-16,23,19,11,18,14,7,92,82,71,30.18,30.08,7,2,9,0.01
2013-2-17,23,14,4,10,6,-1,85,71,52,30.30,30.18,8,2,10,0.00
2013-2-18,44,30,16,37,21,8,81,68,55,30.27,29.57,19,8,23,0.01
2013-2-19,45,30,18,40,26,12,92,84,74,29.93,29.37,24,11,32,0.15
2013-2-20,22,19,15,15,11,8,81,73,63,30.33,29.93,17,6,20,0.00
2013-2-21,22,19,16,20,14,9,90,79,68,30.50,30.32,14,4,19,0.00
2013-2-22,32,26,20,30,23,16,95,90,78,30.37,29.91,15,5,18,0.28
2013-2-23,33,29,25,31,26,22,95,86,76,29.95,29.89,15,7,18,0.00
2013-2-24,38,30,24,29,24,21,92,78,56,30.22,29.93,12,3,12,0.00
2013-2-25,38,33,28,26,24,22,76,68,57,30.28,30.18,6,1,8,0.00
2013-2-26,36,31,25,31,26,21,95,83,77,30.22,29.66,17,5,21,0.36
2013-2-27,35,34,33,34,32,31,95,94,92,29.66,29.57,9,3,13,0.34
2013-2-28,35,33,29,32,29,22,96,86,75,30.06,29.63,12,4,16,0.04
2013-3-1,29,26,23,23,20,16,83,77,70,30.21,30.06,12,4,16,0.00
2013-3-2,27,23,20,18,17,16,84,77,68,30.19,30.15,10,3,13,0.00
2013-3-3,30,21,13,20,14,10,92,77,59,30.16,30.08,7,2,9,0.00
2013-3-4,33,22,12,19,15,9,88,76,53,30.23,30.16,6,2,7,0.00
2013-3-5,32,25,16,26,20,13,88,82,72,30.23,29.99,13,3,18,0.00
2013-3-6,38,33,27,31,28,24,89,82,72,30.28,30.01,10,3,14,0.00
2013-3-7,36,31,26,30,24,18,94,76,56,30.48,30.27,10,2,12,0.00
2013-3-8,40,30,19,26,21,15,87,72,52,30.58,30.47,5,1,7,0.00
2013-3-9,45,35,26,33,28,23,92,79,57,30.47,30.09,12,4,14,0.01
2013-3-10,53,44,35,42,38,32,90,78,64,30.09,29.82,8,3,12,0.02
2013-3-11,53,47,37,48,42,33,95,85,68,29.82,29.48,16,5,22,0.35
2013-3-12,37,33,29,33,28,24,92,83,69,29.93,29.64,18,8,21,0.00
2013-3-13,34,28,23,25,19,14,95,70,48,30.25,29.91,20,6,21,0.00
2013-3-14,39,30,23,24,20,15,86,65,48,30.31,30.10,12,4,15,0.00
2013-3-15,41,35,31,33,29,21,84,78,65,30.10,29.91,14,5,20,0.00
2013-3-16,31,27,23,25,23,20,92,85,76,30.11,29.88,12,3,17,0.12
2013-3-17,26,22,19,22,14,8,89,70,52,30.40,30.11,10,3,14,0.00
2013-3-18,33,29,18,32,25,13,95,85,69,30.31,29.61,14,5,21,0.14
2013-3-19,34,25,22,31,20,16,92,80,71,29.94,29.60,23,10,29,0.00
2013-3-20,27,22,18,19,14,12,80,71,59,29.99,29.93,17,7,19,0.00
2013-3-21,32,24,17,23,18,12,92,79,65,29.97,29.89,13,6,16,0.00
2013-3-22,38,30,25,26,22,18,84,73,59,30.09,29.98,7,4,15,0.00
2013-3-23,37,32,29,27,25,22,83,75,65,30.18,30.09,4,2,12,0.00
2013-3-24,36,31,27,29,25,24,90,80,63,30.13,29.81,8,3,20,0.00
2013-3-25,41,37,32,32,29,26,84,73,65,30.00,29.75,18,5,22,0.00
2013-3-26,44,37,31,34,30,26,87,75,62,30.16,30.00,8,4,13,0.02
2013-3-27,41,33,31,30,26,25,80,76,61,30.20,30.15,11,5,17,0.00
2013-4-2,39,34,28,18,14,12,61,45,35,30.30,30.17,14,6,24,0.00
2013-4-3,43,32,22,20,17,14,76,55,35,30.50,30.30,15,3,16,0.00
2013-4-4,55,41,29,33,23,18,68,51,31,30.39,29.96,17,6,23,0.00
2013-4-5,46,38,30,33,25,20,85,62,36,30.27,30.00,15,3,16,0.00
2013-4-6,51,38,29,29,24,21,75,57,37,30.29,29.74,20,8,24,0.01
2013-4-7,55,46,40,48,37,29,85,70,45,30.09,29.56,20,7,30,0.01
2013-4-8,47,40,32,44,36,29,96,88,69,30.09,29.72,14,4,21,0.73
2013-4-9,43,40,38,42,38,36,96,94,92,30.15,29.96,11,3,16,1.16
2013-4-10,38,37,36,36,35,32,94,91,82,30.13,29.98,14,5,20,0.58
2013-4-11,38,34,33,34,32,31,94,91,82,30.11,29.78,26,6,32,1.26
2013-4-12,42,37,33,37,34,32,95,90,77,29.78,29.61,14,5,19,0.48
2013-4-13,41,37,34,34,31,25,94,80,61,30.02,29.78,20,8,26,0.04
2013-4-14,45,38,31,36,31,27,89,76,54,30.17,29.98,12,4,17,0.00
2013-4-15,68,53,38,56,46,32,94,77,62,29.98,29.85,21,5,25,0.14
2013-4-16,58,50,42,52,40,34,95,71,41,30.33,29.91,14,4,18,0.54
2013-4-17,47,42,38,40,36,32,93,81,70,30.43,30.10,12,3,14,0.61
2013-4-18,71,54,42,65,51,40,96,91,81,30.10,29.42,19,6,31,1.21
2013-4-19,62,43,36,58,38,27,94,81,64,29.73,29.35,29,13,36,0.47
2013-4-20,38,33,28,27,21,18,74,62,50,30.52,29.73,22,6,22,0.00
2013-4-21,50,38,24,29,24,18,83,58,41,30.70,30.51,15,4,20,0.00
2013-4-22,63,48,34,39,31,25,81,55,28,30.53,30.22,14,4,16,0.00
2013-4-23,63,53,41,53,43,34,94,71,53,30.23,29.83,14,5,18,0.38
2013-4-24,47,39,33,39,32,25,94,77,45,30.13,29.88,13,4,19,0.42
2013-4-25,51,42,35,41,31,26,90,67,43,30.37,30.08,18,6,25,0.10
2013-4-26,60,48,33,39,34,28,85,60,40,30.48,30.32,15,5,20,0.00
2013-4-27,71,58,45,46,40,37,75,54,29,30.34,30.13,11,4,18,0.00
2013-4-28,67,56,49,52,45,37,94,69,51,30.13,29.88,16,4,19,0.00
2013-4-29,71,61,53,55,53,52,97,78,55,29.96,29.88,11,3,15,0.01
2013-4-30,74,64,57,59,56,53,92,76,59,30.05,29.92,18,6,24,0.19
2013-5-1,84,73,60,62,57,54,80,59,35,30.23,30.04,13,5,19,0.00
2013-5-2,82,70,59,58,54,48,80,58,35,30.26,30.12,16,5,21,0.00
2013-5-3,79,68,58,56,48,34,68,50,26,30.16,30.07,19,7,25,0.00
2013-5-4,75,66,57,50,44,33,70,47,23,30.15,30.08,15,6,20,0.00
2013-5-5,75,63,51,49,42,33,68,47,22,30.15,30.06,13,3,20,0.00
2013-5-6,75,63,49,51,45,38,93,55,27,30.12,30.01,10,2,12,0.00
2013-5-7,76,63,47,52,46,40,89,56,35,30.11,30.03,9,2,13,0.00
2013-5-8,80,66,51,53,47,38,88,55,23,30.07,29.97,8,1,11,0.00
2013-5-9,82,66,51,57,51,45,94,63,29,30.00,29.89,9,2,12,0.00
2013-5-10,59,57,53,52,50,49,87,79,74,29.93,29.89,12,4,15,0.05
2013-5-13,55,51,46,32,27,24,54,40,32,30.22,30.12,10,3,17,0.00
2013-5-14,65,54,46,47,39,30,69,57,46,30.12,29.73,18,6,21,0.00
2013-5-15,79,67,54,57,48,38,82,55,23,29.81,29.54,18,5,24,0.03
2013-5-16,80,64,53,51,45,40,72,51,25,30.09,29.80,15,2,16,0.00
2013-5-17,63,55,48,50,44,40,80,67,47,30.22,30.09,11,2,13,0.00
2013-5-18,74,62,54,53,49,45,81,64,44,30.22,30.06,9,2,15,0.00
2013-5-19,87,71,52,62,54,46,83,58,41,30.08,29.87,8,2,12,0.00
2013-5-20,90,74,66,70,65,59,91,74,46,29.92,29.73,22,5,32,0.36
2013-5-21,80,71,66,67,64,62,91,80,62,29.81,29.72,16,4,19,0.30
2013-5-22,71,66,60,67,63,58,96,90,82,29.74,29.63,13,3,20,0.66
2013-5-23,60,50,45,59,48,41,96,92,80,30.22,29.67,13,4,18,0.79
2013-5-24,56,46,37,43,37,32,86,72,55,30.43,30.22,11,3,13,0.00
2013-5-25,64,50,38,43,38,32,94,66,33,30.48,30.35,8,1,12,0.00
2013-5-26,67,54,40,46,40,35,92,63,33,30.41,30.29,7,1,12,0.00
2013-5-27,71,57,44,49,39,29,80,55,24,30.31,30.06,13,4,17,0.00
2013-5-28,74,60,52,69,58,48,97,92,78,30.06,29.79,12,5,17,1.44
2013-5-29,78,70,64,69,66,62,97,88,72,29.99,29.76,16,4,25,0.64
2013-5-30,88,75,67,74,68,63,94,79,57,30.03,29.93,23,4,42,0.47
2013-5-31,80,75,71,69,67,66,86,77,64,29.96,29.83,19,6,24,0.00
2013-6-1,80,72,67,67,65,62,91,78,59,29.84,29.67,20,6,22,0.03
2013-6-2,68,60,47,63,53,40,92,79,64,30.05,29.61,14,5,20,0.03
2013-6-3,69,56,40,45,41,38,91,61,36,30.12,30.03,12,2,17,0.00
2013-6-4,53,53,52,44,44,42,74,71,68,30.14,30.12,0,0,1,0.00
2013-6-6,63,60,56,52,50,46,85,70,58,30.00,29.96,13,4,16,0.00
2013-6-7,64,57,51,53,51,48,91,79,66,29.99,29.93,8,3,14,0.00
2013-6-8,72,62,51,56,52,49,95,74,51,30.11,29.95,10,1,13,0.00
2013-6-9,79,67,54,60,56,52,92,69,49,30.15,29.99,18,5,23,0.00
2013-6-10,68,64,59,64,60,53,97,88,58,29.99,29.79,12,3,17,0.31
2013-6-11,81,71,61,67,64,60,98,80,58,29.91,29.81,10,3,15,0.00
2013-6-12,80,69,61,67,63,60,97,84,59,29.93,29.70,9,2,13,0.05
2013-6-13,76,68,61,63,59,56,95,75,51,29.98,29.68,11,2,14,0.13
2013-6-14,76,65,56,58,53,50,89,68,44,30.14,29.97,7,2,12,0.00
2013-6-15,78,66,52,62,56,49,93,71,44,30.09,29.90,13,3,16,0.00
2013-6-16,82,72,64,67,62,52,96,72,38,29.90,29.74,14,4,18,0.43
2013-6-17,76,66,59,65,59,54,91,78,60,29.99,29.86,11,2,15,0.40
2013-6-18,68,62,56,54,48,41,88,63,39,30.14,29.97,13,4,18,0.00
2013-6-19,74,61,46,53,47,42,92,62,36,30.24,30.13,11,2,13,0.00
2013-6-20,83,68,52,57,52,46,88,58,35,30.24,30.17,9,2,12,0.00
2013-6-21,87,75,60,67,60,54,82,62,46,30.22,30.02,15,4,22,0.00
2013-6-22,90,77,68,72,67,59,92,71,53,30.06,29.95,10,3,13,0.00
2013-6-23,91,78,64,72,67,63,96,72,47,30.04,29.92,17,4,22,0.00
2013-6-24,87,79,72,72,68,65,87,71,53,30.02,29.90,14,5,19,0.00
2013-6-25,81,74,69,70,67,65,92,79,62,29.93,29.82,15,4,20,0.04
2013-6-26,87,76,65,71,68,63,96,76,53,29.87,29.75,9,2,12,0.00
2013-6-27,85,73,67,72,68,65,96,86,61,29.77,29.66,9,2,14,0.86
2013-6-28,76,68,65,68,65,62,96,90,71,29.67,29.56,8,2,12,1.29
2013-6-29,72,66,62,63,61,57,96,83,60,29.78,29.58,10,1,12,0.06
2013-6-30,76,68,60,64,57,41,93,71,35,30.01,29.78,11,2,14,0.00
2013-7-1,72,64,55,61,54,49,88,71,57,30.16,30.01,12,3,22,0.00
2013-7-2,72,65,58,59,55,49,93,71,46,30.14,30.09,10,2,18,0.08
2013-7-3,83,68,56,69,62,54,94,81,58,30.14,30.06,8,1,13,0.01
2013-7-4,79,71,63,66,63,61,97,78,53,30.13,30.07,10,2,14,0.01
2013-7-5,84,75,65,68,65,62,92,72,54,30.12,30.03,9,2,10,0.00
2013-7-6,88,77,67,71,68,65,94,75,50,30.10,29.97,8,2,11,0.00
2013-7-7,81,74,70,72,70,67,93,85,71,30.01,29.94,10,3,12,0.04
2013-7-8,81,74,70,74,70,68,95,89,72,30.01,29.96,14,2,19,0.04
2013-7-9,86,75,67,75,70,66,97,86,64,29.99,29.84,8,2,10,0.07
2013-7-10,85,76,64,73,67,56,96,76,48,29.96,29.76,12,5,19,0.01
2013-7-11,77,67,58,61,58,55,90,74,53,30.12,29.97,7,1,14,0.00
2013-7-12,81,67,53,65,58,51,95,76,52,30.22,30.12,8,1,13,0.00
2013-7-13,86,73,58,66,61,56,95,69,43,30.24,30.17,9,2,14,0.00
2013-7-14,90,78,63,72,67,61,92,72,50,30.28,30.23,9,2,9,0.00
2013-7-15,95,82,71,76,72,68,91,72,50,30.30,30.23,7,1,11,0.00
2013-7-16,96,84,74,77,74,72,95,74,50,30.30,30.21,12,2,12,0.00
2013-7-17,95,84,73,78,74,70,91,73,52,30.26,30.13,13,3,18,0.00
2013-7-18,95,84,73,77,73,70,93,70,47,30.15,29.90,15,4,19,0.00
2013-7-19,94,84,79,75,73,68,84,73,47,29.91,29.69,24,8,41,0.12
2013-7-22,84,79,69,69,66,62,79,66,56,29.91,29.75,10,4,17,0.00
2013-7-23,76,70,60,70,61,48,89,76,54,29.94,29.66,16,4,23,0.00
2013-7-24,71,61,48,54,50,45,89,69,48,30.09,29.93,7,2,14,0.00
2013-7-25,78,65,50,56,52,48,95,66,40,30.15,30.08,7,1,21,0.00
2013-7-26,79,68,60,64,59,53,93,73,55,30.10,29.90,12,3,15,0.04
2013-7-27,79,66,56,64,61,50,94,83,56,29.91,29.74,17,3,21,0.36
2013-7-28,66,58,50,56,52,47,92,80,65,29.97,29.82,11,4,16,0.05
2013-7-29,72,62,55,59,56,54,95,81,59,30.21,29.95,10,3,14,0.14
2013-7-30,78,65,50,61,56,49,96,76,48,30.27,30.15,7,1,11,0.01
2013-7-31,66,64,62,64,62,58,97,93,86,30.15,29.92,9,2,12,0.52
2013-8-1,79,68,59,65,59,55,97,76,43,29.93,29.88,12,2,16,0.01
2013-8-2,77,66,56,66,59,53,93,79,60,29.93,29.81,15,4,22,0.07
2013-8-3,77,66,54,60,56,52,95,72,47,30.09,29.92,11,2,14,0.01
2013-8-4,74,62,52,57,54,50,92,76,50,30.21,30.09,8,1,10,0.00
2013-8-5,64,59,56,56,53,51,84,81,73,30.13,30.10,9,1,11,0.00
2013-8-6,78,74,69,69,67,63,92,79,70,29.95,29.87,10,3,13,0.01
2013-8-7,84,72,63,71,66,61,95,82,60,29.95,29.78,13,4,21,0.74
2013-8-8,76,67,57,63,56,52,93,71,45,30.07,29.95,8,2,11,0.00
2013-8-9,80,68,53,62,57,52,97,70,46,30.04,29.94,15,3,17,0.00
2013-8-10,76,66,54,58,54,48,89,67,45,30.18,30.04,6,1,10,0.00
2013-8-11,77,66,56,60,57,54,94,73,48,30.15,30.05,7,1,11,0.00
2013-8-12,78,70,63,67,63,59,90,78,60,30.08,29.84,12,2,13,0.00
2013-8-13,68,60,53,60,49,44,89,69,46,30.11,29.88,13,4,15,0.00
2013-8-14,72,60,47,52,49,44,93,70,44,30.20,30.11,7,2,12,0.00
2013-8-15,77,61,46,58,51,44,93,71,39,30.19,30.08,11,2,14,0.00
2013-8-16,81,66,51,58,52,40,91,65,26,30.23,30.13,7,1,9,0.00
2013-8-17,83,68,53,62,56,51,95,68,35,30.29,30.21,8,2,13,0.00
2013-8-18,82,69,53,62,56,51,95,66,36,30.26,30.12,9,1,12,0.00
2013-8-19,84,70,55,62,57,52,93,68,42,30.14,30.03,11,2,14,0.00
2013-8-20,86,73,60,67,62,57,90,71,45,30.13,30.06,15,2,16,0.00
2013-8-21,88,76,65,69,65,62,92,71,46,30.11,29.96,15,3,19,0.00
2013-8-22,82,75,64,69,66,61,92,76,60,30.10,29.92,8,2,12,0.01
2013-8-23,77,67,52,64,57,49,92,73,50,30.24,30.10,11,2,13,0.00
2013-8-24,83,69,52,61,56,50,95,68,40,30.34,30.24,9,2,13,0.00
2013-8-25,88,75,61,69,64,58,92,70,51,30.29,30.09,17,5,21,0.00
2013-8-26,86,77,71,74,69,65,88,76,63,30.12,29.96,11,4,15,0.04
2013-8-27,76,74,70,74,71,68,97,92,86,29.98,29.84,19,2,25,0.67
2013-8-28,81,74,67,72,70,66,97,88,68,30.04,29.81,9,2,15,0.00
2013-8-29,87,75,63,72,67,62,98,79,52,30.12,30.00,6,0,8,0.01
2013-8-30,88,76,67,74,70,65,95,83,61,30.01,29.72,22,4,25,0.61
2013-8-31,80,71,63,67,65,60,94,82,58,29.88,29.79,7,1,10,0.00
2013-9-1,76,68,61,69,64,60,97,87,70,29.88,29.74,8,1,12,0.02
2013-9-2,70,64,57,68,58,53,96,82,66,29.95,29.74,10,3,15,0.00
2013-9-3,76,65,55,56,54,52,89,69,45,30.04,29.93,11,3,17,0.00
2013-9-4,81,65,55,66,59,52,94,81,58,30.14,30.01,13,3,15,0.00
2013-9-5,68,58,46,54,49,43,93,74,51,30.31,30.14,8,2,12,0.00
2013-9-6,76,61,46,57,51,44,94,72,48,30.32,30.07,11,3,13,0.00
2013-9-7,78,68,62,70,62,54,95,82,74,30.07,29.89,11,3,16,0.07
2013-9-8,70,66,56,69,57,50,95,74,57,30.15,29.95,11,4,16,0.00
2013-9-9,79,65,51,70,60,48,93,83,70,30.10,29.86,10,3,15,0.01
2013-9-10,95,82,72,73,70,66,92,68,41,29.97,29.84,16,6,21,0.00
2013-9-11,86,77,68,71,66,64,87,70,52,30.00,29.93,12,3,17,0.00
2013-9-12,76,66,57,64,57,43,95,73,46,30.01,29.89,14,4,20,0.00
2013-9-13,61,53,44,46,43,39,87,70,46,30.19,30.01,14,3,17,0.00
2013-9-14,69,54,38,46,42,36,95,67,36,30.24,30.10,11,2,16,0.00
2013-9-15,61,56,52,55,50,46,96,81,66,30.16,30.06,10,2,14,0.09
2013-9-16,57,52,44,54,46,40,96,79,59,30.45,30.16,12,4,16,0.01
2013-9-17,68,52,36,50,43,35,96,74,48,30.48,30.26,12,2,14,0.00
2013-9-18,78,62,43,57,50,41,94,69,41,30.26,30.03,22,3,25,0.00
2013-9-19,80,69,61,69,63,55,93,81,67,30.05,29.87,11,4,16,0.17
2013-9-20,77,70,65,71,66,62,95,88,76,29.88,29.72,16,4,21,0.23
2013-9-21,67,60,52,63,53,45,93,80,52,29.92,29.69,13,4,17,0.00
2013-9-22,58,50,42,45,42,39,93,73,53,30.15,29.92,8,2,14,0.00
2013-9-23,62,53,46,47,45,42,91,74,53,30.25,30.14,9,1,13,0.00
2013-9-24,66,53,38,52,46,37,100,78,54,30.21,30.06,8,1,12,0.00
2013-9-25,68,54,42,55,49,40,97,82,60,30.07,30.03,11,1,14,0.00
2013-9-26,73,57,42,58,50,40,97,81,46,30.19,30.06,7,1,10,0.02
2013-9-27,77,60,43,59,52,41,96,78,48,30.28,30.18,9,1,15,0.00
2013-9-28,79,65,52,60,54,50,97,72,43,30.23,30.00,14,4,20,0.01
2013-9-29,70,63,54,60,56,52,95,78,58,30.03,29.92,11,3,17,0.35
2013-9-30,71,57,48,57,51,47,97,82,50,30.06,29.94,8,1,10,0.01
2013-10-1,77,64,52,64,57,49,93,81,61,29.98,29.88,19,5,24,0.00
2013-10-2,76,65,52,60,50,39,95,64,28,30.11,29.92,8,2,12,0.00
2013-10-3,81,66,48,67,57,44,87,73,59,30.10,29.91,11,3,15,0.00
2013-10-4,73,66,61,67,63,59,96,92,78,30.09,29.91,9,2,11,0.58
2013-10-5,72,65,60,68,63,59,97,94,84,30.08,29.84,14,3,16,0.30
2013-10-6,72,64,54,67,62,52,97,92,77,29.84,29.66,14,5,18,0.64
2013-10-7,61,53,47,52,48,44,96,83,56,30.11,29.67,16,4,19,0.14
2013-10-8,69,55,42,49,45,41,100,73,45,30.31,30.11,12,3,15,0.00
2013-10-9,72,58,44,51,46,41,93,68,41,30.36,30.24,9,2,12,0.00
2013-10-10,71,56,41,56,49,39,95,78,49,30.28,30.16,7,1,13,0.00
2013-10-11,71,55,41,57,49,39,96,80,56,30.21,30.11,7,1,11,0.01
2013-10-12,79,62,45,62,52,43,95,72,41,30.13,30.02,13,3,16,0.00
2013-10-13,65,58,47,60,48,42,87,71,47,30.40,30.08,10,2,12,0.00
2013-10-14,59,50,42,46,43,40,94,78,56,30.48,30.33,7,1,12,0.01
2013-10-15,66,53,38,59,48,36,96,86,69,30.33,29.81,13,4,18,0.22
2013-10-16,60,55,50,59,50,46,96,86,77,29.91,29.80,16,5,22,0.01
2013-10-17,52,50,44,50,47,42,95,90,81,29.92,29.75,9,2,11,0.41
2013-10-18,62,49,40,48,43,39,96,80,48,29.91,29.83,20,5,20,0.01
2013-10-19,54,46,40,43,40,33,90,79,46,29.90,29.73,13,4,18,0.00
2013-10-20,56,46,39,45,40,36,95,79,53,29.92,29.78,13,4,17,0.09
2013-10-21,56,50,40,49,42,28,92,75,62,29.86,29.78,19,7,24,0.04
2013-10-22,49,40,32,37,32,27,82,71,55,29.92,29.86,13,5,21,0.00
2013-10-23,47,39,34,35,31,24,93,75,42,29.96,29.88,16,3,21,0.00
2013-10-24,47,37,31,35,32,29,93,80,57,30.20,29.95,10,4,15,0.00
2013-10-25,48,39,30,36,30,26,94,73,46,30.35,30.03,17,5,21,0.00
2013-10-26,50,44,37,42,36,30,92,75,59,30.03,29.74,20,8,28,0.22
2013-10-27,52,42,34,36,33,31,89,72,52,30.08,29.98,13,4,18,0.00
2013-10-28,44,41,38,37,33,29,84,73,64,30.49,30.06,15,3,17,0.00
2013-10-29,44,39,32,39,32,28,91,77,65,30.52,30.30,8,2,9,0.04
2013-10-30,60,44,31,49,39,29,95,83,62,30.30,29.96,6,1,8,0.02
2013-10-31,62,59,53,60,57,48,98,94,80,29.96,29.08,17,6,22,0.99
2013-11-1,61,49,46,59,46,44,95,90,81,29.67,29.05,31,9,31,0.15
2013-11-2,46,42,36,45,39,31,96,88,75,30.18,29.67,11,2,16,0.14
2013-11-3,44,38,29,37,32,27,93,80,65,30.51,30.18,12,3,14,0.01
2013-11-4,48,40,32,36,30,26,87,69,44,30.52,30.30,18,8,22,0.00
2013-11-5,59,52,45,48,44,36,82,76,65,30.36,30.14,11,4,16,0.00
2013-11-6,57,51,40,54,47,36,94,86,70,30.14,29.70,20,7,27,0.59
2013-11-7,41,38,36,36,31,26,89,75,59,30.16,30.01,12,4,18,0.02
2013-11-8,44,37,30,32,28,26,89,71,52,30.31,30.14,9,3,14,0.00
2013-11-9,51,45,37,42,36,30,79,70,59,30.19,29.78,21,9,25,0.00
2013-11-10,47,41,34,35,32,28,81,68,53,30.29,29.91,21,6,23,0.00
2013-11-11,42,35,26,37,29,17,91,79,63,30.40,30.07,13,5,20,0.13
2013-11-12,34,27,21,22,18,15,87,70,50,30.60,30.40,14,3,20,0.00
2013-11-13,42,31,21,25,20,17,92,67,41,30.58,30.12,21,8,26,0.00
2013-11-14,48,39,33,31,28,23,72,63,48,30.13,29.96,22,8,24,0.00
2013-11-15,48,43,40,37,31,27,71,61,55,30.07,29.98,12,4,16,0.00
2013-11-16,56,47,37,52,41,30,91,79,67,30.11,29.76,20,7,25,0.09
2013-11-17,63,57,44,59,54,41,94,90,82,29.77,29.13,31,11,39,1.18
2013-11-18,46,39,35,42,31,24,89,72,64,30.16,29.36,26,10,36,0.00
2013-11-19,40,34,30,27,24,22,81,68,52,30.47,30.16,11,3,14,0.00
2013-11-20,44,35,27,33,28,23,88,76,56,30.49,30.28,17,6,22,0.00
2013-11-21,49,44,37,44,38,30,94,81,68,30.33,30.20,9,2,11,0.07
2013-11-22,45,37,26,43,33,23,96,87,69,30.42,30.17,15,3,19,0.03
2013-11-23,28,23,16,24,15,7,91,73,49,30.58,30.30,22,6,28,0.01
2013-11-24,23,19,14,15,11,9,84,72,56,30.67,30.42,11,4,18,0.00
2013-11-25,32,26,21,28,16,5,93,67,44,30.42,30.05,21,9,28,0.00
2013-11-26,32,31,27,30,28,22,93,89,79,30.11,29.99,12,4,15,0.00
2013-11-27,27,22,17,21,14,10,85,71,53,30.25,30.03,19,4,21,0.00
2013-11-28,25,21,17,23,18,12,92,86,76,30.51,30.25,9,2,12,0.02
2013-11-29,25,19,12,23,17,10,98,91,86,30.75,30.51,8,1,9,0.00
2013-11-30,44,34,24,32,27,21,88,75,62,30.63,30.11,13,4,15,0.00
2013-12-1,38,36,32,34,31,28,92,84,75,30.12,30.07,6,1,9,0.00
2013-12-2,37,32,27,29,27,25,92,81,64,30.08,29.95,4,0,5,0.00
2013-12-3,34,31,26,32,28,23,94,89,83,30.00,29.92,9,3,13,0.61
2013-12-4,55,41,33,53,39,32,95,94,89,29.95,29.58,16,3,21,0.10
2013-12-5,56,40,28,53,32,19,92,75,61,30.17,29.57,23,10,28,0.00
2013-12-6,28,22,18,19,14,10,76,70,63,30.47,30.16,13,4,17,0.00
2013-12-7,22,19,12,13,9,6,78,66,56,30.69,30.46,13,4,17,0.00
2013-12-8,25,18,11,23,12,6,92,79,63,30.67,30.08,9,2,13,0.04
2013-12-9,29,24,14,26,20,6,93,85,66,30.13,29.90,22,7,26,0.13
2013-12-10,18,13,4,14,7,-1,86,76,56,30.22,29.95,25,6,27,0.00
2013-12-11,19,13,5,12,6,0,85,73,57,30.50,30.22,19,4,19,0.00
2013-12-12,20,12,4,16,8,-1,86,82,74,30.50,30.19,16,6,25,0.00
2013-12-13,24,20,14,18,16,10,88,81,73,30.42,30.17,12,3,15,0.00
2013-12-14,22,19,14,19,16,10,91,88,84,30.41,29.92,14,4,19,0.18
2013-12-15,22,18,10,19,13,4,92,82,67,30.06,29.84,19,6,23,0.00
2013-12-16,16,11,2,10,5,-2,88,78,58,30.28,30.06,10,3,14,0.00
2013-12-17,29,22,14,26,19,10,100,87,80,30.11,29.88,12,3,14,0.06
2013-12-18,27,25,22,23,19,14,89,79,67,30.14,29.89,13,5,17,0.00
2013-12-19,35,28,22,29,23,14,92,80,70,30.08,29.86,8,2,9,0.04
2013-12-20,33,31,28,31,30,26,95,93,92,30.00,29.82,9,3,11,0.24
2013-12-21,32,30,28,31,28,26,94,92,90,29.98,29.81,15,3,15,0.15
2013-12-22,31,28,22,31,26,19,100,92,87,30.08,29.70,13,1,18,0.44
2013-12-23,24,21,13,20,18,8,93,88,78,30.38,30.07,0,0,0,0.00
2013-12-24,13,10,7,9,6,3,92,84,81,30.45,30.38,0,0,0,0.00
2014-1-2,12,7,-2,9,1,-7,92,74,66,30.41,30.28,14,5,19,0.00